Santa Maria do Suacui, Brazil
Current Conditions -  °F | °C
As of 9:00 PM on Friday 28 Nov 2014 (Local Time) from SBIP Reporting Station
Light Rain Light Rain  
Wind Chill: 77°   Ceiling: 8000
Heat Index: 78°   Visibility: 6mi
Dew Point: 72°   Wind: 2mph
Humidity: 83%   Direction: 230°SW
Pressure: 29.97"   Gusts: NA
Location:  18.19°S, 42.41°W
Report Text: SBIP 282300Z 23002KT 9999 -RA SCT030 OVC080 25/22 Q1015
Loading
Personal Weather Stations






























Interactive Weather Map New forecast layout! Learn more

10-Day Weather Forecast

Advertisements
Track Severe Weather on mobile